Hardaway, Alabama
Current Conditions -  °F | °C
As of 4:53 PM on Tuesday 25 Nov 2014 (Local Time) from KTOI Reporting Station
Broken Clouds Broken Clouds  
Wind Chill: 53°   Ceiling: 11000
Heat Index: 53°   Visibility: 10mi
Dew Point: 44°   Wind: 3mph
Humidity: 71%   Direction: 300°WNW
Pressure: 30.07"   Gusts: NA
Location:  32.29°N, 85.85°W
Report Text: KTOI 252253Z AUTO 30003KT 10SM BKN110 12/07 A3007 RMK AO2 SLP182 T01170067
Loading
Personal Weather Stations






























Interactive Weather Map New forecast layout! Learn more

10-Day Weather Forecast

Advertisements
Track Severe Weather on mobile